createdAt,value
2022-08-22T00:01:40.035Z,3.87
2022-08-22T00:03:06.692Z,5.13
2022-08-22T00:04:15.771Z,4.57
2022-08-22T00:06:49.299Z,3.90
2022-08-22T00:09:29.423Z,3.50
2022-08-22T00:12:05.747Z,4.70
2022-08-22T00:14:41.072Z,3.67
2022-08-22T00:17:23.854Z,4.13
2022-08-22T00:19:57.418Z,4.47
2022-08-22T00:22:31.512Z,4.00
2022-08-22T00:25:25.431Z,4.17
2022-08-22T00:27:59.267Z,4.27
2022-08-22T00:30:30.252Z,4.17
2022-08-22T00:33:04.951Z,4.03
2022-08-22T00:35:40.547Z,3.80
2022-08-22T00:38:17.881Z,4.00
2022-08-22T00:40:57.108Z,4.20
2022-08-22T00:43:54.720Z,3.70
2022-08-22T00:46:36.717Z,3.50
2022-08-22T00:49:16.884Z,3.93
2022-08-22T00:52:08.537Z,4.20
2022-08-22T00:54:52.483Z,4.13
2022-08-22T00:57:32.900Z,4.50
2022-08-22T01:00:25.253Z,3.93
2022-08-22T01:03:36.076Z,3.87
2022-08-22T01:06:18.493Z,3.97
2022-08-22T01:08:58.207Z,3.80
2022-08-22T01:11:54.558Z,4.30
2022-08-22T01:14:37.899Z,4.37
2022-08-22T01:17:33.737Z,4.23
2022-08-22T01:20:24.258Z,4.20
2022-08-22T01:23:28.360Z,4.10
2022-08-22T01:26:29.818Z,5.13
2022-08-22T01:29:32.006Z,4.33
2022-08-22T01:32:37.119Z,4.17
2022-08-22T01:35:23.264Z,4.60
2022-08-22T01:38:10.136Z,4.90
2022-08-22T01:41:07.265Z,4.63
2022-08-22T01:44:01.150Z,4.07
2022-08-22T01:46:44.822Z,4.43
2022-08-22T01:49:18.678Z,4.27
2022-08-22T01:51:52.668Z,4.27
2022-08-22T01:54:39.335Z,4.57
2022-08-22T01:57:09.655Z,4.20
2022-08-22T01:59:42.669Z,4.43
2022-08-22T02:02:37.334Z,4.30
2022-08-22T02:05:11.047Z,4.90
2022-08-22T02:07:48.893Z,4.00
2022-08-22T02:10:23.010Z,4.97
2022-08-22T02:12:59.607Z,3.70
2022-08-22T02:15:36.979Z,4.30
2022-08-22T02:18:15.485Z,4.37
2022-08-22T02:20:58.482Z,4.43
2022-08-22T02:23:31.752Z,4.40
2022-08-22T02:26:07.353Z,3.57
2022-08-22T02:28:57.275Z,4.77
2022-08-22T02:31:37.468Z,4.20
2022-08-22T02:34:21.822Z,4.27
2022-08-22T02:36:58.062Z,4.83
2022-08-22T02:39:35.056Z,4.80
2022-08-22T02:42:15.909Z,5.00
2022-08-22T02:44:52.856Z,4.07
2022-08-22T02:47:30.648Z,4.13
2022-08-22T02:50:07.191Z,4.40
2022-08-22T02:52:54.842Z,4.97
2022-08-22T02:55:34.626Z,4.23
2022-08-22T02:58:07.462Z,5.27
2022-08-22T03:00:46.114Z,4.53
2022-08-22T03:03:22.696Z,4.63
2022-08-22T03:06:01.334Z,4.50
2022-08-22T03:08:32.148Z,4.80
2022-08-22T03:11:10.670Z,4.47
2022-08-22T03:13:49.534Z,4.70
2022-08-22T03:16:25.484Z,4.27
2022-08-22T03:18:58.378Z,4.60
2022-08-22T03:21:34.287Z,4.57
2022-08-22T03:24:08.562Z,4.80
2022-08-22T03:26:46.060Z,5.17
2022-08-22T03:29:19.979Z,3.83
2022-08-22T03:32:14.112Z,4.57
2022-08-22T03:34:57.549Z,4.73
2022-08-22T03:37:34.534Z,4.50
2022-08-22T03:40:06.073Z,4.60
2022-08-22T03:43:00.266Z,5.23
2022-08-22T03:45:59.138Z,4.00
2022-08-22T03:48:47.423Z,4.13
2022-08-22T03:51:33.736Z,4.40
2022-08-22T03:54:17.908Z,4.83
2022-08-22T03:57:37.237Z,3.90
2022-08-22T04:00:38.045Z,4.07
2022-08-22T04:03:36.337Z,4.53
2022-08-22T04:06:42.089Z,3.93
2022-08-22T04:09:46.420Z,4.83
2022-08-22T04:12:25.888Z,4.07
2022-08-22T04:15:20.482Z,4.53
2022-08-22T04:18:03.510Z,4.50
2022-08-22T04:21:01.154Z,3.90
2022-08-22T04:23:48.396Z,4.37
2022-08-22T04:26:20.053Z,3.47
2022-08-22T04:28:50.412Z,3.87
2022-08-22T04:31:24.859Z,4.50
2022-08-22T04:34:01.951Z,4.07
2022-08-22T04:36:35.775Z,4.50
2022-08-22T04:39:07.891Z,4.27
2022-08-22T04:41:43.509Z,4.77
2022-08-22T04:44:14.985Z,4.63
2022-08-22T04:46:48.435Z,4.80
2022-08-22T04:49:24.555Z,5.30
2022-08-22T04:51:59.193Z,4.50
2022-08-22T04:54:38.022Z,4.80
2022-08-22T04:57:17.999Z,3.80
2022-08-22T04:59:46.941Z,4.60
2022-08-22T05:02:23.277Z,4.13
2022-08-22T05:04:59.518Z,5.10
2022-08-22T05:07:36.024Z,4.80
2022-08-22T05:10:11.994Z,5.20
2022-08-22T05:12:49.497Z,4.87
2022-08-22T05:15:23.188Z,4.73
2022-08-22T05:17:53.828Z,4.90
2022-08-22T05:20:25.607Z,4.87
2022-08-22T05:22:57.948Z,4.80
2022-08-22T05:25:29.352Z,5.05
2022-08-22T05:28:08.287Z,5.50
2022-08-22T05:30:37.221Z,4.90
2022-08-22T05:33:14.361Z,4.77
2022-08-22T05:35:50.791Z,5.03
2022-08-22T05:38:25.093Z,5.00
2022-08-22T05:40:57.364Z,5.10
2022-08-22T05:43:26.966Z,4.57
2022-08-22T05:45:58.053Z,4.83
2022-08-22T05:48:31.583Z,4.43
2022-08-22T05:51:09.118Z,5.40
2022-08-22T05:53:40.836Z,5.63
2022-08-22T05:56:15.165Z,5.80
2022-08-22T05:58:53.276Z,5.00
2022-08-22T06:01:26.350Z,4.40
2022-08-22T06:04:01.033Z,4.40
2022-08-22T06:06:33.679Z,4.70
2022-08-22T06:09:04.732Z,5.60
2022-08-22T06:11:39.505Z,5.43
2022-08-22T06:14:16.310Z,5.63
2022-08-22T06:16:51.665Z,5.33
2022-08-22T06:19:22.067Z,5.20
2022-08-22T06:21:53.376Z,5.30
2022-08-22T06:24:25.709Z,4.37
2022-08-22T06:26:58.346Z,4.40
2022-08-22T06:29:34.595Z,4.50
2022-08-22T06:32:11.791Z,5.10
2022-08-22T06:34:42.941Z,4.70
2022-08-22T06:37:18.096Z,4.13
2022-08-22T06:39:49.971Z,4.10
2022-08-22T06:42:22.674Z,4.13
2022-08-22T06:44:54.656Z,5.20
2022-08-22T06:47:27.406Z,3.87
2022-08-22T06:50:04.947Z,4.70
2022-08-22T06:52:39.651Z,4.60
2022-08-22T06:55:10.446Z,4.37
2022-08-22T06:57:45.079Z,4.47
2022-08-22T07:00:16.898Z,3.93
2022-08-22T07:02:48.256Z,4.30
2022-08-22T07:05:20.044Z,3.47
2022-08-22T07:07:50.551Z,4.03
2022-08-22T07:10:20.019Z,4.20
2022-08-22T07:12:51.394Z,3.83
2022-08-22T07:15:24.251Z,4.10
2022-08-22T07:17:59.165Z,3.53
2022-08-22T07:20:29.621Z,3.97
2022-08-22T07:23:02.015Z,3.63
2022-08-22T07:25:31.689Z,4.43
2022-08-22T07:28:21.558Z,4.40
2022-08-22T07:31:12.179Z,4.00
2022-08-22T07:33:45.127Z,3.67
2022-08-22T07:36:36.962Z,5.00
2022-08-22T07:39:26.256Z,4.30
2022-08-22T07:42:10.004Z,4.40
2022-08-22T07:44:50.875Z,4.17
2022-08-22T07:47:26.367Z,4.10
2022-08-22T07:49:59.268Z,4.33
2022-08-22T07:52:33.734Z,5.30
2022-08-22T07:55:13.042Z,4.17
2022-08-22T07:57:45.034Z,3.80
2022-08-22T08:00:17.554Z,5.10
2022-08-22T08:02:47.996Z,4.80
2022-08-22T08:05:17.467Z,4.60
2022-08-22T08:07:47.918Z,3.83
2022-08-22T08:10:20.508Z,4.03
2022-08-22T08:13:02.163Z,4.23
2022-08-22T08:15:34.306Z,4.30
2022-08-22T08:18:12.981Z,3.73
2022-08-22T08:20:41.951Z,4.67
2022-08-22T08:23:11.943Z,4.27
2022-08-22T08:25:54.948Z,4.20
2022-08-22T08:28:34.935Z,4.40
2022-08-22T08:31:08.867Z,4.47
2022-08-22T08:33:41.127Z,3.20
2022-08-22T08:36:20.024Z,3.73
2022-08-22T08:38:52.931Z,3.93
2022-08-22T08:41:52.002Z,3.90
2022-08-22T08:44:37.218Z,3.30
2022-08-22T08:47:24.456Z,3.23
2022-08-22T08:50:16.074Z,3.70
2022-08-22T08:53:11.617Z,3.70
2022-08-22T08:55:47.480Z,3.67
2022-08-22T08:58:30.141Z,3.30
2022-08-22T09:01:07.205Z,4.07
2022-08-22T09:03:59.856Z,3.13
2022-08-22T09:06:52.841Z,3.50
2022-08-22T09:09:41.087Z,4.17
2022-08-22T09:12:34.670Z,4.13
2022-08-22T09:15:42.413Z,4.37
2022-08-22T09:18:49.763Z,4.67
2022-08-22T09:21:30.723Z,4.30
2022-08-22T09:24:32.968Z,4.00
2022-08-22T09:27:03.966Z,3.83
2022-08-22T09:32:44.478Z,4.07
2022-08-22T09:35:23.553Z,4.40
2022-08-22T09:38:03.561Z,3.80
2022-08-22T09:40:39.098Z,4.60
2022-08-22T09:43:12.300Z,3.73
2022-08-22T09:45:47.923Z,3.40
2022-08-22T09:48:34.546Z,4.17
2022-08-22T09:51:31.691Z,3.57
2022-08-22T09:54:31.023Z,3.60
2022-08-22T09:57:07.703Z,3.50
2022-08-22T10:00:02.061Z,4.87
2022-08-22T10:02:36.362Z,3.70
2022-08-22T10:05:13.639Z,4.00
2022-08-22T10:08:29.212Z,3.77
2022-08-22T10:11:11.283Z,3.57
2022-08-22T10:13:57.400Z,3.43
2022-08-22T10:17:00.225Z,4.60
2022-08-22T10:19:33.779Z,4.20
2022-08-22T10:22:20.988Z,3.63
2022-08-22T10:25:07.461Z,4.10
2022-08-22T10:27:48.784Z,3.53
2022-08-22T10:30:20.212Z,3.17
2022-08-22T10:32:53.789Z,3.70
2022-08-22T10:35:27.995Z,3.40
2022-08-22T10:38:10.590Z,3.33
2022-08-22T10:40:44.997Z,3.67
2022-08-22T10:43:21.064Z,3.37
2022-08-22T10:46:04.599Z,3.37
2022-08-22T10:48:44.128Z,3.30
2022-08-22T10:51:19.484Z,3.60
2022-08-22T10:54:14.649Z,2.63
2022-08-22T10:56:55.746Z,3.13
2022-08-22T10:59:34.597Z,2.77
2022-08-22T11:02:18.141Z,3.03
2022-08-22T11:05:13.999Z,3.30
2022-08-22T11:07:48.654Z,3.60
2022-08-22T11:10:25.125Z,2.83
2022-08-22T11:13:12.661Z,2.97
2022-08-22T11:15:58.173Z,2.93
2022-08-22T11:18:37.157Z,2.67
2022-08-22T11:21:09.368Z,2.70
2022-08-22T11:23:43.114Z,3.30
2022-08-22T11:26:35.792Z,3.10
2022-08-22T11:29:35.495Z,3.00
2022-08-22T11:32:13.405Z,3.40
2022-08-22T11:34:50.962Z,3.37
2022-08-22T11:37:42.593Z,2.50
2022-08-22T11:40:37.624Z,2.57
2022-08-22T11:43:18.132Z,2.57
2022-08-22T11:45:50.766Z,2.60
2022-08-22T11:48:24.439Z,2.53
2022-08-22T11:50:57.933Z,3.30
2022-08-22T11:53:34.076Z,3.27
2022-08-22T11:56:13.785Z,2.47
2022-08-22T11:58:50.227Z,3.30
2022-08-22T12:01:23.996Z,2.90
2022-08-22T12:04:00.603Z,2.80
2022-08-22T12:06:57.942Z,3.27
2022-08-22T12:09:40.903Z,2.53
2022-08-22T12:12:25.825Z,3.00
2022-08-22T12:14:59.305Z,2.70
2022-08-22T12:18:11.726Z,3.10
2022-08-22T12:21:11.284Z,2.80
2022-08-22T12:24:21.008Z,2.63
2022-08-22T12:27:00.234Z,3.07
2022-08-22T12:29:44.671Z,2.60
2022-08-22T12:32:34.762Z,2.67
2022-08-22T12:35:19.299Z,2.40
2022-08-22T12:37:53.445Z,2.90
2022-08-22T12:40:29.645Z,2.40
2022-08-22T12:43:29.779Z,2.40
2022-08-22T12:46:15.730Z,2.17
2022-08-22T12:49:12.395Z,3.00
2022-08-22T12:51:56.427Z,2.90
2022-08-22T12:54:52.302Z,2.80
2022-08-22T12:57:31.269Z,2.20
2022-08-22T13:00:18.113Z,2.60
2022-08-22T13:02:53.459Z,2.70
2022-08-22T13:05:25.089Z,2.90
2022-08-22T13:07:57.192Z,2.90
2022-08-22T13:10:38.297Z,2.90
2022-08-22T13:13:12.125Z,2.73
2022-08-22T13:15:45.221Z,2.37
2022-08-22T13:18:29.384Z,2.73
2022-08-22T13:21:01.852Z,2.63
2022-08-22T13:23:39.981Z,2.40
2022-08-22T13:26:33.718Z,2.77
2022-08-22T13:29:26.473Z,2.20
2022-08-22T13:32:00.304Z,1.93
2022-08-22T13:34:39.980Z,2.50
2022-08-22T13:37:15.468Z,2.60
2022-08-22T13:39:47.120Z,2.43
2022-08-22T13:42:29.926Z,2.23
2022-08-22T13:45:03.117Z,2.27
2022-08-22T13:47:39.598Z,2.77
2022-08-22T13:50:13.959Z,2.43
2022-08-22T13:52:52.498Z,2.43
2022-08-22T13:55:29.492Z,2.40
2022-08-22T13:58:07.758Z,2.30
2022-08-22T14:01:10.970Z,1.93
2022-08-22T14:03:45.419Z,2.50
2022-08-22T14:06:41.411Z,2.47
2022-08-22T14:09:31.319Z,2.63
2022-08-22T14:12:11.992Z,2.80
2022-08-22T14:14:45.859Z,2.43
2022-08-22T14:17:17.433Z,2.87
2022-08-22T14:19:52.939Z,2.80
2022-08-22T14:22:34.815Z,2.40
2022-08-22T14:25:07.511Z,2.27
2022-08-22T14:27:39.742Z,2.00
2022-08-22T14:30:18.911Z,2.60
2022-08-22T14:32:51.119Z,2.20
2022-08-22T14:35:35.175Z,2.20
2022-08-22T14:38:18.242Z,2.40
2022-08-22T14:40:48.655Z,2.57
2022-08-22T14:43:22.448Z,2.80
2022-08-22T14:46:02.223Z,2.50
2022-08-22T14:48:40.551Z,2.20
2022-08-22T14:51:11.853Z,2.40
2022-08-22T14:53:41.475Z,2.70
2022-08-22T14:56:12.672Z,2.20
2022-08-22T14:58:50.650Z,2.30
2022-08-22T15:01:25.045Z,2.20
2022-08-22T15:03:56.331Z,2.20
2022-08-22T15:06:35.141Z,2.30
2022-08-22T15:09:08.333Z,2.60
2022-08-22T15:11:37.839Z,2.50
2022-08-22T15:14:16.002Z,2.43
2022-08-22T15:16:52.950Z,2.20
2022-08-22T15:19:27.235Z,2.23
2022-08-22T15:22:09.977Z,2.93
2022-08-22T15:24:46.467Z,2.40
2022-08-22T15:27:18.830Z,2.23
2022-08-22T15:29:53.061Z,3.40
2022-08-22T15:32:26.718Z,2.30
2022-08-22T15:35:04.910Z,2.60
2022-08-22T15:37:35.500Z,2.10
2022-08-22T15:40:12.648Z,2.30
2022-08-22T15:42:44.010Z,2.33
2022-08-22T15:45:22.722Z,2.30
2022-08-22T15:47:54.653Z,2.33
2022-08-22T15:50:32.250Z,2.70
2022-08-22T15:53:18.012Z,2.70
2022-08-22T15:56:29.004Z,2.60
2022-08-22T15:59:24.410Z,2.30
2022-08-22T16:01:58.794Z,2.70
2022-08-22T16:04:40.468Z,2.47
2022-08-22T16:07:26.885Z,2.70
2022-08-22T16:09:58.009Z,2.77
2022-08-22T16:12:32.829Z,2.40
2022-08-22T16:15:05.234Z,2.60
2022-08-22T16:17:44.246Z,2.20
2022-08-22T16:20:54.010Z,2.47
2022-08-22T16:23:22.973Z,2.60
2022-08-22T16:26:12.885Z,2.23
2022-08-22T16:28:59.004Z,5.10
2022-08-22T16:31:30.868Z,4.20
2022-08-22T16:34:20.387Z,5.20
2022-08-22T16:36:53.893Z,3.00
2022-08-22T16:39:35.585Z,4.53
2022-08-22T16:42:26.666Z,6.23
2022-08-22T16:45:11.163Z,3.73
2022-08-22T16:47:43.065Z,2.73
2022-08-22T16:50:28.576Z,3.20
2022-08-22T16:53:03.180Z,2.47
2022-08-22T16:55:56.431Z,2.53
2022-08-22T16:59:09.848Z,2.70
2022-08-22T17:02:03.018Z,2.53
2022-08-22T17:04:40.365Z,2.80
2022-08-22T17:07:18.808Z,2.30
2022-08-22T17:10:12.631Z,2.40
2022-08-22T17:12:54.117Z,2.53
2022-08-22T17:15:32.727Z,2.23
2022-08-22T17:18:15.978Z,2.57
2022-08-22T17:20:48.564Z,2.67
2022-08-22T17:23:26.722Z,3.03
2022-08-22T17:26:01.797Z,2.37
2022-08-22T17:28:37.100Z,2.83
2022-08-22T17:31:12.076Z,2.43
2022-08-22T17:34:07.159Z,2.83
2022-08-22T17:36:54.069Z,2.80
2022-08-22T17:39:33.668Z,2.10
2022-08-22T17:42:29.396Z,2.13
2022-08-22T17:45:07.302Z,3.23
2022-08-22T17:47:46.669Z,2.13
2022-08-22T17:50:22.907Z,2.83
2022-08-22T17:52:57.784Z,2.33
2022-08-22T17:55:31.847Z,2.40
2022-08-22T17:58:37.682Z,2.87
2022-08-22T18:01:13.719Z,2.40
2022-08-22T18:03:47.711Z,2.73
2022-08-22T18:06:23.246Z,2.50
2022-08-22T18:11:49.576Z,2.33
2022-08-22T18:14:33.871Z,3.20
2022-08-22T18:17:15.031Z,2.13
2022-08-22T18:19:53.135Z,2.27
2022-08-22T18:22:25.970Z,2.60
2022-08-22T18:24:58.901Z,2.70
2022-08-22T18:27:35.396Z,2.80
2022-08-22T18:30:16.474Z,2.50
2022-08-22T18:32:50.980Z,2.67
2022-08-22T18:35:23.850Z,2.73
2022-08-22T18:37:59.212Z,2.70
2022-08-22T18:40:33.005Z,2.83
2022-08-22T18:43:13.986Z,2.60
2022-08-22T18:46:04.150Z,3.30
2022-08-22T18:48:54.239Z,2.97
2022-08-22T18:51:30.437Z,3.00
2022-08-22T18:54:17.837Z,2.73
2022-08-22T18:56:51.666Z,2.50
2022-08-22T18:59:42.546Z,2.60
2022-08-22T19:02:28.251Z,3.10
2022-08-22T19:05:40.967Z,3.27
2022-08-22T19:08:31.354Z,3.47
2022-08-22T19:11:15.608Z,2.90
2022-08-22T19:13:53.211Z,3.10
2022-08-22T19:16:45.313Z,2.97
2022-08-22T19:19:18.638Z,3.20
2022-08-22T19:22:21.744Z,2.73
2022-08-22T19:25:26.195Z,3.30
2022-08-22T19:28:26.691Z,2.80
2022-08-22T19:31:22.392Z,3.50
2022-08-22T19:33:52.353Z,3.30
2022-08-22T19:36:34.456Z,3.53
2022-08-22T19:39:09.012Z,3.40
2022-08-22T19:41:40.591Z,3.43
2022-08-22T19:44:22.157Z,4.07
2022-08-22T19:47:14.852Z,4.33
2022-08-22T19:50:05.722Z,3.60
2022-08-22T19:52:48.180Z,3.50
2022-08-22T19:55:22.691Z,4.10
2022-08-22T19:57:58.598Z,3.67
2022-08-22T20:00:47.545Z,3.77
2022-08-22T20:03:31.031Z,4.53
2022-08-22T20:06:05.920Z,3.60
2022-08-22T20:08:48.457Z,3.10
2022-08-22T20:11:27.244Z,2.90
2022-08-22T20:14:12.057Z,2.83
2022-08-22T20:17:04.322Z,2.77
2022-08-22T20:20:16.558Z,3.60
2022-08-22T20:22:38.691Z,3.90
2022-08-22T20:25:16.270Z,3.80
2022-08-22T20:28:05.357Z,3.67
2022-08-22T20:30:40.375Z,3.60
2022-08-22T20:33:13.874Z,3.57
2022-08-22T20:35:45.223Z,3.10
2022-08-22T20:38:17.610Z,3.57
2022-08-22T20:40:55.543Z,3.50
2022-08-22T20:43:29.907Z,3.60
2022-08-22T20:46:05.520Z,3.37
2022-08-22T20:48:39.256Z,3.83
2022-08-22T20:51:10.139Z,3.97
2022-08-22T20:53:38.940Z,3.37
2022-08-22T20:56:10.532Z,3.63
2022-08-22T20:58:46.949Z,3.60
2022-08-22T21:01:16.403Z,4.77
2022-08-22T21:03:46.721Z,4.53
2022-08-22T21:06:17.674Z,3.80
2022-08-22T21:09:07.935Z,3.57
2022-08-22T21:11:40.207Z,3.80
2022-08-22T21:14:23.088Z,3.17
2022-08-22T21:16:53.656Z,4.30
2022-08-22T21:19:26.414Z,3.30
2022-08-22T21:21:56.393Z,4.00
2022-08-22T21:24:25.192Z,3.57
2022-08-22T21:26:57.941Z,4.27
2022-08-22T21:29:33.960Z,3.63
2022-08-22T21:32:12.492Z,3.90
2022-08-22T21:34:45.009Z,3.27
2022-08-22T21:37:16.536Z,3.37
2022-08-22T21:39:47.479Z,3.70
2022-08-22T21:42:24.797Z,3.20
2022-08-22T21:44:57.950Z,3.30
2022-08-22T21:47:31.606Z,3.07
2022-08-22T21:50:04.577Z,2.90
2022-08-22T21:52:34.865Z,3.20
2022-08-22T21:55:25.438Z,2.60
2022-08-22T21:58:13.120Z,2.50
2022-08-22T22:01:03.975Z,3.93
2022-08-22T22:03:37.867Z,2.97
2022-08-22T22:06:07.485Z,2.60
2022-08-22T22:08:36.296Z,3.50
2022-08-22T22:11:09.022Z,2.90
2022-08-22T22:13:41.167Z,3.37
2022-08-22T22:16:12.044Z,3.40
2022-08-22T22:18:41.550Z,3.60
2022-08-22T22:21:10.380Z,2.83
2022-08-22T22:23:39.369Z,3.43
2022-08-22T22:26:08.072Z,2.87
2022-08-22T22:28:41.469Z,4.17
2022-08-22T22:31:10.824Z,3.30
2022-08-22T22:33:41.139Z,2.97
2022-08-22T22:36:12.691Z,2.53
2022-08-22T22:38:42.214Z,3.27
2022-08-22T22:41:11.314Z,3.40
2022-08-22T22:43:41.608Z,3.20
2022-08-22T22:46:10.366Z,3.57
2022-08-22T22:48:39.082Z,3.00
2022-08-22T22:51:09.498Z,3.13
2022-08-22T22:53:40.347Z,3.37
2022-08-22T22:56:15.771Z,3.03
2022-08-22T22:58:47.503Z,3.60
2022-08-22T23:01:18.678Z,3.70
2022-08-22T23:03:48.305Z,3.50
2022-08-22T23:06:19.462Z,3.60
2022-08-22T23:08:49.349Z,2.50
2022-08-22T23:11:19.937Z,2.67
2022-08-22T23:13:50.594Z,3.03
2022-08-22T23:16:21.584Z,3.00
2022-08-22T23:18:50.747Z,2.90
2022-08-22T23:21:22.217Z,3.80
2022-08-22T23:23:52.247Z,2.97
2022-08-22T23:26:21.029Z,3.10
2022-08-22T23:28:51.266Z,2.60
2022-08-22T23:31:29.138Z,3.07
2022-08-22T23:34:01.166Z,3.63
2022-08-22T23:36:30.572Z,2.90
2022-08-22T23:38:59.373Z,3.03
2022-08-22T23:41:28.226Z,3.37
2022-08-22T23:43:58.414Z,3.23
2022-08-22T23:46:31.252Z,3.00
2022-08-22T23:49:00.584Z,3.10
2022-08-22T23:51:29.776Z,3.10
2022-08-22T23:53:59.678Z,2.50
2022-08-22T23:56:30.493Z,2.90
2022-08-22T23:59:01.614Z,3.17
